Time;durP1;ratioP1;P1;durP2;ratioP2;P2;SDS_P1;SDS_P2;PMS_P1;PMS_P2;Temp;Humidity;BMP_temperature;BMP_pressure;BME280_temperature;BME280_humidity;BME280_pressure;Samples;Min_cycle;Max_cycle;Signal;HPM_P1;HPM_P2
2022/09/26 00:00:47;;;;;;;8.05;3.95;;;11.70;99.90;;;;;;5956006;24;20327;-89
2022/09/26 00:03:13;;;;;;;10.13;4.60;;;11.70;99.90;;;;;;5979399;24;20012;-89
2022/09/26 00:05:39;;;;;;;7.75;4.20;;;11.70;99.90;;;;;;5979885;24;20016;-90
2022/09/26 00:08:06;;;;;;;8.95;4.43;;;11.70;99.90;;;;;;5979705;24;20019;-90
2022/09/26 00:10:33;;;;;;;7.28;4.20;;;11.70;99.90;;;;;;5956291;24;20443;-90
2022/09/26 00:13:00;;;;;;;8.68;4.10;;;11.70;99.90;;;;;;5980545;23;20038;-90
2022/09/26 00:15:26;;;;;;;8.90;4.15;;;11.70;99.90;;;;;;5980153;24;20413;-90
2022/09/26 00:17:52;;;;;;;9.50;3.85;;;11.70;99.90;;;;;;5979759;24;20020;-91
2022/09/26 00:20:17;;;;;;;8.13;4.43;;;11.70;99.90;;;;;;5981280;24;20020;-91
2022/09/26 00:22:43;;;;;;;9.00;4.18;;;11.70;99.90;;;;;;5980241;24;20083;-90
2022/09/26 00:25:09;;;;;;;8.25;3.75;;;11.70;99.90;;;;;;5956202;24;20016;-90
2022/09/26 00:27:34;;;;;;;8.02;3.88;;;11.70;99.90;;;;;;5978221;24;20016;-90
2022/09/26 00:30:00;;;;;;;8.02;4.00;;;11.60;99.90;;;;;;5981151;24;20051;-90
2022/09/26 00:32:26;;;;;;;8.57;3.60;;;11.70;99.90;;;;;;5956206;24;20088;-90
2022/09/26 00:34:52;;;;;;;9.65;3.92;;;11.70;99.90;;;;;;5979546;24;20008;-91
2022/09/26 00:37:18;;;;;;;7.68;3.58;;;11.70;99.90;;;;;;5979615;24;20464;-90
2022/09/26 00:39:43;;;;;;;9.15;3.80;;;11.70;99.90;;;;;;5978341;24;20047;-90
2022/09/26 00:42:13;;;;;;;7.30;3.40;;;11.70;99.90;;;;;;5984628;24;20045;-90
2022/09/26 00:44:49;;;;;;;7.35;3.40;;;11.70;99.90;;;;;;5994234;24;20031;-89
2022/09/26 00:47:45;;;;;;;7.53;3.40;;;11.70;99.90;;;;;;5991527;24;20016;-90
2022/09/26 00:50:35;;;;;;;8.75;3.30;;;11.70;99.90;;;;;;5980860;24;20404;-92
2022/09/26 00:53:00;;;;;;;8.38;3.45;;;11.60;99.90;;;;;;5969540;24;20023;-91
2022/09/26 00:55:32;;;;;;;7.72;3.38;;;11.70;99.90;;;;;;5978646;24;20024;-90
2022/09/26 00:58:08;;;;;;;11.20;3.30;;;11.60;99.90;;;;;;5980064;24;20024;-90
2022/09/26 01:00:34;;;;;;;7.38;3.22;;;11.60;99.90;;;;;;5956811;24;20020;-90
2022/09/26 01:03:00;;;;;;;7.13;3.40;;;11.60;99.90;;;;;;5980576;24;20044;-90
2022/09/26 01:05:27;;;;;;;9.05;3.42;;;11.60;99.90;;;;;;5960424;24;20039;-88
2022/09/26 01:07:54;;;;;;;9.98;3.13;;;11.70;99.90;;;;;;5985964;24;20024;-90
2022/09/26 01:10:20;;;;;;;7.72;3.17;;;11.60;99.90;;;;;;5981620;24;20016;-90
2022/09/26 01:12:46;;;;;;;6.88;2.88;;;11.60;99.90;;;;;;5978001;24;20026;-91
2022/09/26 01:15:12;;;;;;;8.70;2.70;;;11.60;99.90;;;;;;5979021;24;20442;-89
2022/09/26 01:17:40;;;;;;;7.15;3.10;;;11.60;99.90;;;;;;5980221;23;20091;-90
2022/09/26 01:20:26;;;;;;;9.90;3.25;;;11.60;99.90;;;;;;5978141;24;20020;-91
2022/09/26 01:23:16;;;;;;;10.25;3.50;;;11.60;99.90;;;;;;5977978;24;20339;-91
2022/09/26 01:25:54;;;;;;;9.75;3.15;;;11.60;99.90;;;;;;5978810;24;20008;-89
2022/09/26 01:28:28;;;;;;;9.15;3.40;;;11.50;99.90;;;;;;5978749;24;20076;-91
2022/09/26 01:31:07;;;;;;;10.27;3.50;;;11.50;99.90;;;;;;5978142;24;20031;-91
2022/09/26 01:33:59;;;;;;;9.93;3.50;;;11.50;99.90;;;;;;5955285;24;20059;-91
2022/09/26 01:36:45;;;;;;;7.88;3.55;;;11.50;99.90;;;;;;5980307;23;20087;-90
2022/09/26 01:39:38;;;;;;;8.43;3.60;;;11.50;99.90;;;;;;5980359;24;20099;-89
2022/09/26 01:42:13;;;;;;;10.90;4.07;;;11.50;99.90;;;;;;5954085;24;20419;-90
2022/09/26 01:44:56;;;;;;;7.90;3.90;;;11.50;99.90;;;;;;5980590;23;20343;-91
2022/09/26 01:47:39;;;;;;;9.82;3.95;;;11.50;99.90;;;;;;5980174;23;20076;-91
2022/09/26 01:50:37;;;;;;;9.85;4.40;;;11.50;99.90;;;;;;5978387;24;20020;-91
2022/09/26 01:53:15;;;;;;;9.75;4.10;;;11.50;99.90;;;;;;5932332;24;20024;-91
2022/09/26 01:55:47;;;;;;;10.90;4.60;;;11.60;99.90;;;;;;5979952;23;20019;-90
2022/09/26 01:58:44;;;;;;;9.73;5.00;;;11.50;99.90;;;;;;5979297;24;20016;-91
2022/09/26 02:01:13;;;;;;;9.50;5.00;;;11.50;99.90;;;;;;5979214;23;20097;-92
2022/09/26 02:03:51;;;;;;;9.93;4.88;;;11.60;99.90;;;;;;5978718;24;20028;-91
2022/09/26 02:06:27;;;;;;;13.32;4.65;;;11.40;99.90;;;;;;5955503;24;20027;-91
2022/09/26 02:08:57;;;;;;;9.07;4.70;;;11.60;99.90;;;;;;5955208;24;20027;-90
2022/09/26 02:11:24;;;;;;;11.20;4.88;;;11.60;99.90;;;;;;5978951;24;20020;-92
2022/09/26 02:14:02;;;;;;;7.22;4.40;;;11.40;99.90;;;;;;5978505;24;20027;-91
2022/09/26 02:16:34;;;;;;;9.77;4.60;;;11.60;99.90;;;;;;5978947;24;20499;-91
2022/09/26 02:19:09;;;;;;;9.80;5.00;;;11.60;99.90;;;;;;5978915;24;20012;-92
2022/09/26 02:21:35;;;;;;;9.48;4.65;;;11.60;99.90;;;;;;5979476;23;20016;-90
2022/09/26 02:24:01;;;;;;;9.70;5.10;;;11.60;99.90;;;;;;5979398;23;20008;-89
2022/09/26 02:26:28;;;;;;;9.57;4.65;;;11.50;99.90;;;;;;5977320;24;20091;-91
2022/09/26 02:28:55;;;;;;;9.93;4.80;;;11.60;99.90;;;;;;5978271;24;20023;-91
2022/09/26 02:31:24;;;;;;;9.48;4.90;;;11.70;99.90;;;;;;5978194;24;20016;-90
2022/09/26 02:33:51;;;;;;;10.05;5.13;;;11.60;99.90;;;;;;5977929;24;20027;-91
2022/09/26 02:36:19;;;;;;;11.55;5.53;;;11.50;99.90;;;;;;5978418;24;20020;-92
2022/09/26 02:38:45;;;;;;;11.07;5.07;;;11.70;99.90;;;;;;5977563;24;20026;-90
2022/09/26 02:41:24;;;;;;;10.63;5.03;;;11.60;99.90;;;;;;5977861;24;20091;-89
2022/09/26 02:43:59;;;;;;;10.27;5.28;;;11.70;99.90;;;;;;5979592;23;20020;-90
2022/09/26 02:47:03;;;;;;;10.10;5.72;;;11.60;99.90;;;;;;5977749;24;20049;-89
2022/09/26 02:49:59;;;;;;;9.15;5.07;;;11.60;99.90;;;;;;5977481;24;20027;-90
2022/09/26 02:52:26;;;;;;;9.25;5.60;;;11.60;99.90;;;;;;5979235;24;20027;-89
2022/09/26 02:55:02;;;;;;;10.13;5.70;;;11.60;99.90;;;;;;5977344;24;20024;-88
2022/09/26 02:58:05;;;;;;;9.15;5.30;;;11.60;99.90;;;;;;5977904;24;20092;-88
2022/09/26 03:00:58;;;;;;;8.23;5.57;;;11.60;99.90;;;;;;5978258;23;20063;-87
2022/09/26 03:03:29;;;;;;;10.57;5.85;;;11.70;99.90;;;;;;5977419;24;20020;-89
2022/09/26 03:05:57;;;;;;;11.23;5.75;;;11.60;99.90;;;;;;5979390;23;20391;-88
2022/09/26 03:08:26;;;;;;;10.15;5.80;;;11.60;99.90;;;;;;5976988;24;20054;-88
2022/09/26 03:10:55;;;;;;;10.52;6.25;;;11.70;99.90;;;;;;5977317;24;20347;-89
2022/09/26 03:13:23;;;;;;;10.60;6.03;;;11.60;99.90;;;;;;5977108;24;20020;-88
2022/09/26 03:15:55;;;;;;;10.10;5.75;;;11.60;99.90;;;;;;5978788;23;20020;-88
2022/09/26 03:18:25;;;;;;;11.50;6.32;;;11.70;99.90;;;;;;5979253;23;20041;-88
2022/09/26 03:20:53;;;;;;;11.30;6.30;;;11.60;99.90;;;;;;5978395;23;20069;-88
2022/09/26 03:23:26;;;;;;;9.25;6.20;;;11.60;99.90;;;;;;5979218;24;20016;-88
2022/09/26 03:26:07;;;;;;;11.65;6.05;;;11.60;99.90;;;;;;5978828;23;20013;-89
2022/09/26 03:28:32;;;;;;;10.73;6.57;;;11.60;99.90;;;;;;5978715;23;20047;-89
2022/09/26 03:30:58;;;;;;;10.15;6.47;;;11.60;99.90;;;;;;5977474;24;20028;-89
2022/09/26 03:33:24;;;;;;;10.43;6.53;;;11.60;99.90;;;;;;5979618;24;20016;-89
2022/09/26 03:35:49;;;;;;;10.45;6.05;;;11.70;99.90;;;;;;5976632;24;20076;-90
2022/09/26 03:38:15;;;;;;;9.73;6.20;;;11.60;99.90;;;;;;5977791;24;20022;-90
2022/09/26 03:40:41;;;;;;;10.95;6.85;;;11.60;99.90;;;;;;5954570;24;20028;-90
2022/09/26 03:43:07;;;;;;;9.38;6.85;;;11.60;99.90;;;;;;5979361;24;20043;-91
2022/09/26 03:45:35;;;;;;;9.50;6.68;;;11.60;99.90;;;;;;5977712;24;20427;-90
2022/09/26 03:48:01;;;;;;;9.57;6.70;;;11.60;99.90;;;;;;5977791;24;20095;-91
2022/09/26 03:50:26;;;;;;;11.13;7.07;;;11.50;99.90;;;;;;5976482;24;20016;-89
2022/09/26 03:52:52;;;;;;;13.50;8.10;;;11.50;99.90;;;;;;5977878;24;20016;-89
2022/09/26 03:55:17;;;;;;;11.23;6.80;;;11.60;99.90;;;;;;5979224;24;20020;-90
2022/09/26 03:57:43;;;;;;;11.77;6.90;;;11.50;99.90;;;;;;5955929;24;20024;-91
2022/09/26 04:00:09;;;;;;;11.95;7.25;;;11.50;99.90;;;;;;5979436;24;20016;-90
2022/09/26 04:02:35;;;;;;;11.27;7.10;;;11.50;99.90;;;;;;5978670;24;20012;-91
2022/09/26 04:05:01;;;;;;;10.80;7.20;;;11.50;99.90;;;;;;5979981;24;20547;-91
2022/09/26 04:07:26;;;;;;;13.15;7.35;;;11.60;99.90;;;;;;5956312;24;20016;-90
2022/09/26 04:09:52;;;;;;;13.00;8.15;;;11.50;99.90;;;;;;5980515;24;20020;-90
2022/09/26 04:12:19;;;;;;;11.40;7.60;;;11.50;99.90;;;;;;5980143;24;20024;-91
2022/09/26 04:14:45;;;;;;;12.00;8.65;;;11.50;99.90;;;;;;5978720;24;20095;-91
2022/09/26 04:17:11;;;;;;;11.63;8.48;;;11.40;99.90;;;;;;5956777;24;20395;-91
2022/09/26 04:19:37;;;;;;;11.77;8.45;;;11.40;99.90;;;;;;5980668;23;20016;-91
2022/09/26 04:22:03;;;;;;;11.20;8.38;;;11.40;99.90;;;;;;5981410;23;20079;-91
2022/09/26 04:24:29;;;;;;;12.45;8.63;;;11.40;99.90;;;;;;5981394;23;20083;-91
2022/09/26 04:26:55;;;;;;;12.75;8.50;;;11.30;99.90;;;;;;5979713;24;20091;-92
2022/09/26 04:29:21;;;;;;;11.77;8.63;;;11.40;99.90;;;;;;5956457;24;20016;-90
2022/09/26 04:31:47;;;;;;;11.20;8.93;;;11.40;99.90;;;;;;5979579;24;20024;-91
2022/09/26 04:34:13;;;;;;;11.77;8.65;;;11.40;99.90;;;;;;5980630;23;20016;-91
2022/09/26 04:36:40;;;;;;;11.52;8.80;;;11.40;99.90;;;;;;5956485;24;20024;-91
2022/09/26 04:39:06;;;;;;;13.75;9.27;;;11.40;99.90;;;;;;5978776;24;20031;-90
2022/09/26 04:41:32;;;;;;;12.80;9.32;;;11.40;99.90;;;;;;5978913;24;20024;-91
2022/09/26 04:43:58;;;;;;;14.20;10.18;;;11.40;99.90;;;;;;5955939;24;20013;-91
2022/09/26 04:46:26;;;;;;;13.45;10.68;;;11.30;99.90;;;;;;5955855;24;20024;-92
2022/09/26 04:48:54;;;;;;;11.95;9.65;;;11.30;99.90;;;;;;5978671;24;20012;-91
2022/09/26 04:51:22;;;;;;;14.00;10.52;;;11.30;99.90;;;;;;5979772;23;20014;-92
2022/09/26 04:53:49;;;;;;;13.30;10.05;;;11.30;99.90;;;;;;5954877;24;20019;-92
2022/09/26 04:56:16;;;;;;;14.65;10.30;;;11.30;99.90;;;;;;5983323;23;20020;-92
2022/09/26 04:58:43;;;;;;;15.27;10.82;;;11.30;99.90;;;;;;5958506;24;20012;-92
2022/09/26 05:01:12;;;;;;;14.38;10.93;;;11.30;99.90;;;;;;6003925;23;20017;-91
2022/09/26 05:03:40;;;;;;;13.60;10.75;;;11.30;99.90;;;;;;5955914;24;20023;-92
2022/09/26 05:06:07;;;;;;;14.15;10.70;;;11.30;99.90;;;;;;5959769;24;20028;-93
2022/09/26 05:08:40;;;;;;;13.90;11.68;;;11.30;99.90;;;;;;5983828;24;20398;-94
2022/09/26 05:11:07;;;;;;;15.93;10.40;;;11.30;99.90;;;;;;5983438;23;20031;-95
2022/09/26 05:13:33;;;;;;;13.75;11.07;;;11.30;99.90;;;;;;5959923;24;20020;-93
2022/09/26 05:16:00;;;;;;;14.75;11.57;;;11.30;99.90;;;;;;5957479;24;20013;-94
2022/09/26 05:18:27;;;;;;;13.10;10.93;;;11.30;99.90;;;;;;5957405;24;20027;-94
2022/09/26 05:20:53;;;;;;;15.85;11.35;;;11.30;99.90;;;;;;5980146;24;20063;-92
2022/09/26 05:26:22;;;;;;;16.40;11.35;;;11.20;99.90;;;;;;6002489;23;20020;-90
2022/09/26 05:28:54;;;;;;;14.57;11.75;;;11.30;99.90;;;;;;5978941;24;20095;-92
2022/09/26 05:31:22;;;;;;;14.88;11.02;;;11.30;99.90;;;;;;5977876;24;20027;-92
2022/09/26 05:33:50;;;;;;;15.15;11.23;;;11.30;99.90;;;;;;5977316;24;20016;-90
2022/09/26 05:36:17;;;;;;;13.25;10.55;;;11.30;99.90;;;;;;5978442;24;20068;-91
2022/09/26 05:38:44;;;;;;;13.07;10.60;;;11.30;99.90;;;;;;5977049;24;20312;-90
2022/09/26 05:41:11;;;;;;;14.57;11.18;;;11.20;99.90;;;;;;5979162;24;20029;-91
2022/09/26 05:43:36;;;;;;;15.02;10.52;;;11.30;99.90;;;;;;5979421;23;20031;-91
2022/09/26 05:46:04;;;;;;;14.88;10.45;;;11.20;99.90;;;;;;5977627;24;20027;-90
2022/09/26 05:48:32;;;;;;;15.32;10.57;;;11.20;99.90;;;;;;5953963;24;20016;-90
2022/09/26 05:51:08;;;;;;;13.27;10.40;;;11.20;99.90;;;;;;5977283;24;20020;-91
2022/09/26 05:53:34;;;;;;;13.48;10.25;;;11.20;99.90;;;;;;5976834;24;20055;-92
2022/09/26 05:56:00;;;;;;;14.57;10.82;;;11.20;99.90;;;;;;5955712;24;20016;-92
2022/09/26 05:58:31;;;;;;;15.48;10.73;;;11.20;99.90;;;;;;5978879;24;20013;-92
2022/09/26 06:01:15;;;;;;;13.90;10.25;;;11.20;99.90;;;;;;5978057;24;20068;-90
2022/09/26 06:03:45;;;;;;;12.95;10.05;;;11.20;99.90;;;;;;5979456;23;20017;-91
2022/09/26 06:06:17;;;;;;;13.40;10.10;;;11.10;99.90;;;;;;5980324;23;20079;-93
2022/09/26 06:08:43;;;;;;;14.05;9.98;;;11.10;99.90;;;;;;5954601;24;20017;-91
2022/09/26 06:11:12;;;;;;;11.80;9.25;;;11.10;99.90;;;;;;5980224;23;20096;-93
2022/09/26 06:13:39;;;;;;;13.73;9.43;;;11.10;99.90;;;;;;5978880;24;20016;-93
2022/09/26 06:16:07;;;;;;;13.27;9.07;;;11.10;99.90;;;;;;5979889;23;20047;-91
2022/09/26 06:18:37;;;;;;;14.85;8.77;;;11.10;99.90;;;;;;5954651;24;20016;-92
2022/09/26 06:21:11;;;;;;;13.98;9.00;;;11.10;99.90;;;;;;5954080;24;20363;-94
2022/09/26 06:23:37;;;;;;;13.35;8.52;;;11.10;99.90;;;;;;5977902;24;20019;-92
2022/09/26 06:26:06;;;;;;;12.15;9.05;;;11.10;99.90;;;;;;5955390;24;20012;-93
2022/09/26 06:28:33;;;;;;;12.30;8.32;;;11.10;99.90;;;;;;5956416;24;20012;-93
2022/09/26 06:30:58;;;;;;;12.80;8.98;;;11.10;99.90;;;;;;5978542;24;20020;-92
2022/09/26 06:33:24;;;;;;;12.82;8.75;;;11.20;99.90;;;;;;5980661;24;20024;-94
2022/09/26 06:36:04;;;;;;;13.52;7.88;;;11.10;99.90;;;;;;5978335;24;20019;-93
2022/09/26 06:38:30;;;;;;;13.13;8.05;;;11.10;99.90;;;;;;5955074;24;20012;-91
2022/09/26 06:40:56;;;;;;;12.00;7.68;;;11.10;99.90;;;;;;5954455;24;20020;-91
2022/09/26 06:43:21;;;;;;;12.48;7.50;;;11.10;99.90;;;;;;5977656;24;20022;-89
2022/09/26 06:45:48;;;;;;;10.43;7.57;;;11.10;99.90;;;;;;5975842;24;20430;-91
2022/09/26 06:48:17;;;;;;;10.65;7.43;;;11.10;99.90;;;;;;5978325;24;20016;-90
2022/09/26 06:50:43;;;;;;;11.13;7.30;;;11.10;99.90;;;;;;5953986;24;20413;-91
2022/09/26 06:53:09;;;;;;;12.75;7.03;;;11.20;99.90;;;;;;5978811;24;20087;-92
2022/09/26 06:55:35;;;;;;;10.50;6.60;;;11.10;99.90;;;;;;5975251;24;20059;-92
2022/09/26 06:58:01;;;;;;;9.38;6.35;;;11.20;99.90;;;;;;5953441;24;20020;-91
2022/09/26 07:00:28;;;;;;;12.43;6.43;;;11.20;99.90;;;;;;5977017;24;20021;-92
2022/09/26 07:02:55;;;;;;;9.32;6.20;;;11.30;99.90;;;;;;5954531;24;20012;-91
2022/09/26 07:05:22;;;;;;;9.52;6.07;;;11.10;99.90;;;;;;5977361;23;20053;-90
2022/09/26 07:07:48;;;;;;;9.93;5.68;;;11.20;99.90;;;;;;5976278;24;20084;-91
2022/09/26 07:10:17;;;;;;;9.50;5.60;;;11.20;99.90;;;;;;5977874;23;20024;-91
2022/09/26 07:12:47;;;;;;;9.40;5.70;;;11.20;99.90;;;;;;5976653;24;20145;-91
2022/09/26 07:15:15;;;;;;;;;;;11.20;99.90;;;;;;5976791;24;20057;-91
2022/09/26 07:17:42;;;;;;;10.18;5.75;;;11.10;99.90;;;;;;5977870;24;19949;-91
2022/09/26 07:20:14;;;;;;;9.85;5.47;;;11.10;99.90;;;;;;5981109;23;20004;-93
2022/09/26 07:22:42;;;;;;;9.80;6.03;;;11.10;99.90;;;;;;5955412;24;20076;-93
2022/09/26 07:25:08;;;;;;;9.68;5.53;;;11.10;99.90;;;;;;5977486;24;20020;-92
2022/09/26 07:27:33;;;;;;;9.82;5.63;;;11.10;99.90;;;;;;5955372;24;20763;-92
2022/09/26 07:29:59;;;;;;;9.20;5.43;;;11.10;99.90;;;;;;5956998;24;20056;-93
2022/09/26 07:32:25;;;;;;;10.02;5.65;;;11.10;99.90;;;;;;5955757;24;20032;-92
2022/09/26 07:34:52;;;;;;;9.00;5.47;;;11.10;99.90;;;;;;5981278;24;20107;-95
2022/09/26 07:37:18;;;;;;;9.30;5.53;;;11.10;99.90;;;;;;5957649;24;20068;-93
2022/09/26 07:39:44;;;;;;;9.85;5.53;;;11.20;99.90;;;;;;5956603;24;20023;-93
2022/09/26 07:42:09;;;;;;;9.75;5.60;;;11.10;99.90;;;;;;5957352;24;20036;-95
2022/09/26 07:44:35;;;;;;;10.60;5.70;;;11.10;99.90;;;;;;5957954;24;20016;-92
2022/09/26 07:52:32;;;;;;;9.38;5.70;;;11.10;99.90;;;;;;5984239;24;20020;-94
2022/09/26 07:54:58;;;;;;;10.63;6.22;;;11.10;99.90;;;;;;5981129;24;20111;-93
2022/09/26 07:57:24;;;;;;;9.75;5.60;;;11.10;99.90;;;;;;5981523;24;20481;-95
2022/09/26 07:59:50;;;;;;;8.63;5.32;;;11.20;99.90;;;;;;5956998;24;20019;-91
2022/09/26 08:02:24;;;;;;;9.43;5.57;;;11.00;99.90;;;;;;5980307;24;20090;-92
2022/09/26 08:04:50;;;;;;;9.10;5.28;;;11.10;99.90;;;;;;5978890;24;20020;-90
2022/09/26 08:07:15;;;;;;;11.00;5.72;;;11.20;99.90;;;;;;5956259;24;20016;-91
2022/09/26 08:09:41;;;;;;;10.38;5.95;;;11.10;99.90;;;;;;5955599;24;20159;-92
2022/09/26 08:12:07;;;;;;;10.38;5.65;;;11.10;99.90;;;;;;5980227;24;20012;-90
2022/09/26 08:14:33;;;;;;;10.77;5.88;;;11.20;99.90;;;;;;5978069;24;20024;-92
2022/09/26 08:16:58;;;;;;;11.45;5.55;;;11.20;99.90;;;;;;5978426;24;20013;-92
2022/09/26 08:19:24;;;;;;;10.98;5.82;;;11.30;99.90;;;;;;5978220;24;20047;-91
2022/09/26 08:21:50;;;;;;;8.98;5.45;;;11.30;99.90;;;;;;5978725;24;20056;-90
2022/09/26 08:24:16;;;;;;;10.05;5.78;;;11.30;99.90;;;;;;5955932;24;20096;-92
2022/09/26 08:26:41;;;;;;;9.15;6.05;;;11.40;99.90;;;;;;5977239;24;20016;-91
2022/09/26 08:29:11;;;;;;;10.35;5.25;;;11.40;99.90;;;;;;5979831;24;20087;-90
2022/09/26 08:31:40;;;;;;;10.63;5.45;;;11.40;99.90;;;;;;5978075;24;20095;-91
2022/09/26 08:34:07;;;;;;;10.15;5.45;;;11.50;99.90;;;;;;5978912;24;20328;-91
2022/09/26 08:36:35;;;;;;;12.07;5.85;;;11.50;99.90;;;;;;5980241;23;20019;-90
2022/09/26 08:39:02;;;;;;;9.35;5.47;;;11.50;99.90;;;;;;5978513;24;20091;-89
2022/09/26 08:41:46;;;;;;;11.13;5.68;;;11.50;99.90;;;;;;5977998;24;20020;-91
2022/09/26 08:44:29;;;;;;;9.60;5.25;;;11.50;99.90;;;;;;5979597;24;20035;-88
2022/09/26 08:47:00;;;;;;;10.43;5.07;;;11.50;99.90;;;;;;5980928;23;20338;-90
2022/09/26 08:50:08;;;;;;;9.43;5.43;;;11.50;99.90;;;;;;5979246;23;20099;-90
2022/09/26 08:52:55;;;;;;;9.70;4.90;;;11.60;99.90;;;;;;5955705;24;20020;-89
2022/09/26 08:55:25;;;;;;;10.57;4.80;;;11.70;99.90;;;;;;5978612;24;20020;-88
2022/09/26 08:57:54;;;;;;;9.35;5.05;;;11.70;99.90;;;;;;5976583;23;20049;-88
2022/09/26 09:00:25;;;;;;;8.43;4.80;;;11.80;99.90;;;;;;5978520;24;20387;-89
2022/09/26 09:03:09;;;;;;;9.20;4.80;;;11.80;99.90;;;;;;5979869;23;20108;-88
2022/09/26 09:05:39;;;;;;;10.05;4.70;;;11.80;99.90;;;;;;5976331;24;20395;-89
2022/09/26 09:08:14;;;;;;;9.00;4.90;;;11.80;99.90;;;;;;5978950;23;20024;-86
2022/09/26 09:10:49;;;;;;;9.10;4.65;;;11.90;99.90;;;;;;5977516;24;20505;-87
2022/09/26 09:13:36;;;;;;;9.13;5.03;;;11.90;99.90;;;;;;5978916;23;20462;-87
2022/09/26 09:16:15;;;;;;;9.60;5.07;;;12.00;99.90;;;;;;5954177;24;20052;-87
2022/09/26 09:19:10;;;;;;;9.00;4.90;;;12.00;99.90;;;;;;5979024;23;20020;-86
2022/09/26 09:21:39;;;;;;;11.13;5.47;;;12.10;99.90;;;;;;5957577;24;20024;-87
2022/09/26 09:24:13;;;;;;;10.60;5.13;;;12.10;99.90;;;;;;5976733;24;20362;-86
2022/09/26 09:26:54;;;;;;;9.43;5.40;;;12.20;99.90;;;;;;5976794;24;20442;-86
2022/09/26 09:29:39;;;;;;;;;;;12.20;99.90;;;;;;5977067;24;20020;-86
2022/09/26 09:32:07;;;;;;;9.48;5.10;;;12.10;99.90;;;;;;5977312;24;19919;-87
2022/09/26 09:34:40;;;;;;;10.10;4.72;;;12.10;99.90;;;;;;5978430;23;20016;-86
2022/09/26 09:37:19;;;;;;;10.32;5.20;;;12.10;99.90;;;;;;5976664;24;20061;-86
2022/09/26 09:39:47;;;;;;;10.30;5.55;;;12.20;99.90;;;;;;5976005;24;20024;-87
2022/09/26 09:42:29;;;;;;;10.45;5.70;;;12.10;99.90;;;;;;5978547;23;20123;-87
2022/09/26 09:45:04;;;;;;;9.10;5.57;;;12.20;99.90;;;;;;5976973;24;20027;-87
2022/09/26 09:47:34;;;;;;;10.55;5.47;;;12.20;99.90;;;;;;5977338;24;20087;-87
2022/09/26 09:50:00;;;;;;;9.27;5.47;;;12.20;99.90;;;;;;5978788;23;20020;-87
2022/09/26 09:53:08;;;;;;;9.77;5.88;;;12.20;99.90;;;;;;5978729;24;20012;-87
2022/09/26 09:55:34;;;;;;;10.63;5.25;;;12.10;99.90;;;;;;5978620;23;20039;-87
2022/09/26 09:58:19;;;;;;;9.52;5.63;;;12.10;99.90;;;;;;5974693;24;20447;-88
2022/09/26 10:01:14;;;;;;;9.65;5.25;;;12.10;99.90;;;;;;5976639;24;20039;-87
2022/09/26 10:03:48;;;;;;;9.98;5.70;;;12.10;99.90;;;;;;5977134;24;20103;-87
2022/09/26 10:06:14;;;;;;;9.23;5.15;;;12.10;99.90;;;;;;5976272;24;20115;-87
2022/09/26 10:08:41;;;;;;;10.85;5.55;;;12.10;99.90;;;;;;5976120;24;20012;-88
2022/09/26 10:11:45;;;;;;;10.82;5.60;;;12.10;99.90;;;;;;5977493;24;20124;-87
2022/09/26 10:14:15;;;;;;;10.82;5.63;;;12.10;99.90;;;;;;5978919;24;20435;-88
2022/09/26 10:17:19;;;;;;;9.02;5.50;;;12.20;99.90;;;;;;5977440;24;20016;-88
2022/09/26 10:19:45;;;;;;;9.50;5.10;;;12.20;99.90;;;;;;5977239;24;20016;-90
2022/09/26 10:22:41;;;;;;;13.00;5.88;;;12.20;99.90;;;;;;5975367;24;20026;-87
2022/09/26 10:25:15;;;;;;;9.93;5.57;;;12.30;99.90;;;;;;5976938;24;20016;-88
2022/09/26 10:27:50;;;;;;;9.32;5.32;;;12.30;99.90;;;;;;5976596;23;20016;-87
2022/09/26 10:30:19;;;;;;;13.35;5.88;;;12.30;99.90;;;;;;5977805;24;20024;-88
2022/09/26 10:32:47;;;;;;;9.57;4.90;;;12.30;99.90;;;;;;5977905;24;20016;-87
2022/09/26 10:35:24;;;;;;;11.63;6.18;;;12.50;99.90;;;;;;5976140;24;20027;-86
2022/09/26 10:38:01;;;;;;;9.07;5.50;;;12.30;99.90;;;;;;5975669;23;20406;-87
2022/09/26 10:40:49;;;;;;;10.52;5.60;;;12.40;99.90;;;;;;5953920;24;20460;-88
2022/09/26 10:43:22;;;;;;;9.48;5.30;;;12.40;99.90;;;;;;5975379;24;20347;-87
2022/09/26 10:45:54;;;;;;;9.38;5.32;;;12.40;99.90;;;;;;5976461;24;20020;-88
2022/09/26 10:48:35;;;;;;;11.80;5.55;;;12.40;99.90;;;;;;5976423;24;20012;-87
2022/09/26 10:51:01;;;;;;;11.15;5.60;;;12.40;99.90;;;;;;5978589;23;20045;-87
2022/09/26 10:53:37;;;;;;;10.65;5.25;;;12.40;99.90;;;;;;5978855;23;20016;-86
2022/09/26 10:56:12;;;;;;;9.93;5.43;;;12.40;99.90;;;;;;5976422;24;20020;-87
2022/09/26 10:58:41;;;;;;;9.02;5.57;;;12.40;99.90;;;;;;5976205;24;20087;-87
2022/09/26 11:01:18;;;;;;;11.60;5.53;;;12.30;99.90;;;;;;5977449;23;20347;-86
2022/09/26 11:03:45;;;;;;;9.82;5.60;;;12.30;99.90;;;;;;5977817;24;20446;-87
2022/09/26 11:06:28;;;;;;;11.23;5.50;;;12.30;99.90;;;;;;5977146;24;20324;-88
2022/09/26 11:08:59;;;;;;;9.27;5.70;;;12.30;99.90;;;;;;5977927;24;20024;-88
2022/09/26 11:11:26;;;;;;;9.90;6.03;;;12.20;99.90;;;;;;5974783;24;20028;-87
2022/09/26 11:14:06;;;;;;;9.65;5.97;;;12.20;99.90;;;;;;5978174;23;20080;-87
2022/09/26 11:16:50;;;;;;;9.57;6.25;;;12.20;99.90;;;;;;5932762;24;20205;-88
2022/09/26 11:19:30;;;;;;;8.50;5.78;;;12.20;99.90;;;;;;5934384;23;20016;-87
2022/09/26 11:22:13;;;;;;;8.80;5.63;;;12.20;99.90;;;;;;5932080;24;20479;-87
2022/09/26 11:24:53;;;;;;;10.07;5.85;;;12.20;99.90;;;;;;5932918;23;20030;-86
2022/09/26 11:27:32;;;;;;;8.95;6.05;;;12.20;99.90;;;;;;5956050;24;20016;-89
2022/09/26 11:30:01;;;;;;;9.25;5.82;;;12.10;99.90;;;;;;5976182;23;20020;-87
2022/09/26 11:32:31;;;;;;;9.95;6.15;;;12.30;99.90;;;;;;5974551;24;20020;-88
2022/09/26 11:35:01;;;;;;;10.40;6.47;;;12.10;99.90;;;;;;5978063;23;20019;-89
2022/09/26 11:37:51;;;;;;;9.55;6.30;;;12.20;99.90;;;;;;5978088;23;20036;-89
2022/09/26 11:40:45;;;;;;;10.98;6.78;;;12.20;99.90;;;;;;5974480;24;20017;-89
2022/09/26 11:43:29;;;;;;;9.90;6.35;;;12.20;99.90;;;;;;5976477;24;20028;-88
2022/09/26 11:46:13;;;;;;;8.98;6.22;;;12.20;99.90;;;;;;5976241;24;20027;-89
2022/09/26 11:49:11;;;;;;;10.13;6.45;;;12.20;99.90;;;;;;5975896;24;20051;-88
2022/09/26 11:51:56;;;;;;;9.50;6.32;;;12.20;99.90;;;;;;5976408;24;20022;-88
2022/09/26 11:54:47;;;;;;;11.52;6.55;;;12.20;99.90;;;;;;5976750;24;20100;-88
2022/09/26 11:57:13;;;;;;;10.55;6.57;;;12.30;99.90;;;;;;5975074;24;20439;-89
2022/09/26 11:59:39;;;;;;;12.80;6.90;;;12.30;99.90;;;;;;5952812;24;20027;-90
2022/09/26 12:02:29;;;;;;;11.32;6.88;;;12.30;99.90;;;;;;5977318;24;20052;-88
2022/09/26 12:05:12;;;;;;;10.00;6.40;;;12.30;99.90;;;;;;5975371;24;20034;-89
2022/09/26 12:08:05;;;;;;;9.95;6.75;;;12.20;99.90;;;;;;5974155;24;20024;-88
2022/09/26 12:10:49;;;;;;;11.27;6.85;;;12.20;99.90;;;;;;5974534;24;20016;-88
2022/09/26 12:13:32;;;;;;;9.35;6.35;;;12.30;99.90;;;;;;5974917;24;20027;-87
2022/09/26 12:16:11;;;;;;;9.80;6.05;;;12.30;99.90;;;;;;5977253;24;20016;-89
2022/09/26 12:19:04;;;;;;;11.35;7.05;;;12.30;99.90;;;;;;5973844;24;20039;-88
2022/09/26 12:24:57;;;;;;;9.35;6.07;;;12.30;99.90;;;;;;5974584;24;20016;-89
2022/09/26 12:27:57;;;;;;;9.02;5.53;;;12.30;99.90;;;;;;5977421;23;20071;-89
2022/09/26 12:30:39;;;;;;;8.65;5.35;;;12.20;99.90;;;;;;5949575;24;20717;-88
2022/09/26 12:33:23;;;;;;;8.15;5.07;;;12.30;99.90;;;;;;5980071;23;20031;-90
2022/09/26 12:35:57;;;;;;;8.55;5.35;;;12.30;99.90;;;;;;5952138;24;20020;-88
2022/09/26 12:38:32;;;;;;;8.32;5.50;;;12.30;99.90;;;;;;5976143;24;20028;-88
2022/09/26 12:41:35;;;;;;;8.45;5.13;;;12.30;99.90;;;;;;5951366;24;20058;-89
2022/09/26 12:44:24;;;;;;;8.23;4.60;;;12.30;99.90;;;;;;5975013;24;20392;-87
2022/09/26 12:47:01;;;;;;;8.75;5.10;;;12.30;99.90;;;;;;5974339;24;20517;-87
2022/09/26 12:49:46;;;;;;;8.63;4.78;;;12.40;99.90;;;;;;5952543;24;20024;-88
2022/09/26 12:52:32;;;;;;;8.18;4.60;;;12.40;99.90;;;;;;5976034;24;20019;-87
2022/09/26 12:55:04;;;;;;;7.53;4.35;;;12.40;99.90;;;;;;5975164;23;20031;-88
2022/09/26 12:57:59;;;;;;;6.53;4.10;;;12.40;99.90;;;;;;5976921;23;20426;-88
2022/09/26 13:00:29;;;;;;;7.50;4.45;;;12.40;99.90;;;;;;5977015;23;20025;-86
2022/09/26 13:03:22;;;;;;;7.97;4.63;;;12.40;99.90;;;;;;5974318;24;20019;-87
2022/09/26 13:06:26;;;;;;;7.18;4.43;;;12.40;99.90;;;;;;5976596;23;20052;-87
2022/09/26 13:09:25;;;;;;;8.45;4.35;;;12.50;99.90;;;;;;5975633;23;20020;-86
2022/09/26 13:12:11;;;;;;;6.47;3.95;;;12.50;99.90;;;;;;5974406;24;20331;-88
2022/09/26 13:14:54;;;;;;;6.70;4.35;;;12.50;99.90;;;;;;5974758;24;20354;-87
2022/09/26 13:17:52;;;;;;;7.85;4.32;;;12.60;99.90;;;;;;5974106;24;20071;-88
2022/09/26 13:20:42;;;;;;;8.85;4.38;;;12.60;99.90;;;;;;5975087;24;20020;-87
2022/09/26 13:23:58;;;;;;;6.82;3.90;;;12.60;99.90;;;;;;5974623;24;20343;-87